Orbital elements of N-1 DEB
| Launched | 2 September 1982 |
| Flight ended | – |
| Launch site | Tanegashima Space Center, Japan |
| Owner | Japan |
| NORAD ID | 14569 |
| Date fetched |
Epoch osculation |
Inc. [°] |
Ecc. | RA asc node [hr] |
Arg Peri. [°] |
Mean anom [°] |
Mean motion [rev/day] |
Abs. mag |
| Date fetched |
Epoch osculation |
Inc. [°] |
Ecc. | RA asc node [hr] |
Arg Peri. [°] |
Mean anom [°] |
Mean motion [rev/day] |
Abs. mag |
| 2026 May 08 17:57 | 2026 May 04 13:59:57 | 44.8414 | 0.01217 | 15.6989 | 85.7668 | 301.1772 | 13.55856 | – |
| 2026 May 07 17:58 | 2026 May 04 13:59:57 | 44.8414 | 0.01217 | 15.6989 | 85.7668 | 301.1772 | 13.55856 | – |
| 2026 May 06 17:57 | 2026 May 04 13:59:57 | 44.8414 | 0.01217 | 15.6989 | 85.7668 | 301.1772 | 13.55856 | – |
| 2026 May 05 17:57 | 2026 May 04 13:59:57 | 44.8414 | 0.01217 | 15.6989 | 85.7668 | 301.1772 | 13.55856 | – |
| 2026 May 04 17:57 | 2026 Apr 29 10:16:44 | 44.8417 | 0.01218 | 17.1238 | 62.8580 | 301.1772 | 13.55856 | – |
| 2026 May 03 17:57 | 2026 Apr 29 10:16:44 | 44.8417 | 0.01218 | 17.1238 | 62.8580 | 301.1772 | 13.55856 | – |
| 2026 May 02 17:57 | 2026 Apr 29 10:16:44 | 44.8417 | 0.01218 | 17.1238 | 62.8580 | 301.1772 | 13.55856 | – |
| 2026 May 01 17:56 | 2026 Apr 29 10:16:44 | 44.8417 | 0.01218 | 17.1238 | 62.8580 | 301.1772 | 13.55856 | – |
| 2026 Apr 30 17:56 | 2026 Apr 29 10:16:44 | 44.8417 | 0.01218 | 17.1238 | 62.8580 | 301.1772 | 13.55856 | – |
| 2026 Apr 29 17:57 | 2026 Apr 24 11:45:53 | 44.8420 | 0.01219 | 18.4887 | 40.9297 | 301.1772 | 13.55856 | – |
| 2026 Apr 28 17:56 | 2026 Apr 24 11:45:53 | 44.8420 | 0.01219 | 18.4887 | 40.9297 | 301.1772 | 13.55856 | – |
| 2026 Apr 27 17:58 | 2026 Apr 24 11:45:53 | 44.8420 | 0.01219 | 18.4887 | 40.9297 | 301.1772 | 13.55856 | – |
| 2026 Apr 26 17:58 | 2026 Apr 24 11:45:53 | 44.8420 | 0.01219 | 18.4887 | 40.9297 | 301.1772 | 13.55856 | – |
| 2026 Apr 25 17:58 | 2026 Apr 24 11:45:53 | 44.8420 | 0.01219 | 18.4887 | 40.9297 | 301.1772 | 13.55856 | – |
| 2026 Apr 24 17:59 | 2026 Apr 24 11:45:53 | 44.8420 | 0.01219 | 18.4887 | 40.9297 | 301.1772 | 13.55856 | – |
| 2026 Apr 23 17:57 | 2026 Apr 19 13:16:02 | 44.8426 | 0.01222 | 19.8535 | 19.0400 | 301.1772 | 13.55856 | – |
| 2026 Apr 22 17:57 | 2026 Apr 19 13:16:02 | 44.8426 | 0.01222 | 19.8535 | 19.0400 | 301.1772 | 13.55856 | – |
| 2026 Apr 21 17:57 | 2026 Apr 19 13:16:02 | 44.8426 | 0.01222 | 19.8535 | 19.0400 | 301.1772 | 13.55856 | – |
| 2026 Apr 20 17:57 | 2026 Apr 19 13:16:02 | 44.8426 | 0.01222 | 19.8535 | 19.0400 | 301.1772 | 13.55856 | – |
| 2026 Apr 19 17:58 | 2026 Apr 19 13:16:02 | 44.8426 | 0.01222 | 19.8535 | 19.0400 | 301.1772 | 13.55856 | – |
| 2026 Apr 18 17:56 | 2026 Apr 12 22:02:59 | 44.8436 | 0.01226 | 21.6872 | 349.6933 | 301.1772 | 13.55856 | – |
| 2026 Apr 16 17:57 | 2026 Apr 12 22:02:59 | 44.8436 | 0.01226 | 21.6872 | 349.6933 | 301.1772 | 13.55856 | – |
| 2026 Apr 14 17:57 | 2026 Apr 12 22:02:59 | 44.8436 | 0.01226 | 21.6872 | 349.6933 | 301.1772 | 13.55856 | – |
| 2026 Apr 13 17:57 | 2026 Apr 12 22:02:59 | 44.8436 | 0.01226 | 21.6872 | 349.6933 | 301.1772 | 13.55856 | – |
| 2026 Apr 12 17:57 | 2026 Apr 08 01:55:01 | 44.8445 | 0.01229 | 23.0246 | 328.3445 | 301.1772 | 13.55856 | – |
| 2026 Apr 11 17:57 | 2026 Apr 08 01:55:01 | 44.8445 | 0.01229 | 23.0246 | 328.3445 | 301.1772 | 13.55856 | – |